Aeroporto :
LOGIN :

Iscrizione | Disclaimer

   EN    FR    IT 

 










Sommario :    VFR   VFR Marginale   IFR   IFR Intensivo   IFR Molto Intensivo
Visibilità : 
Base nubi : 
>= 8 km
>= 3000ft
5 / 8 km
1000 / 3000 ft
1500m / 5 km
500 / 1000 ft
800 / 1500m
200 / 500 ft
< 800m
< 200 ft
Simboli :   Temporali  Nebbia  Neve Forte  Precipitazioni Forti  Vento > 20 kt
SIGMETs :   Varie  Temporali  Ghiacco  Turbolenza  Onda orograficha  Ceneri Vulcaniche







- Altitudine del aeroporto : 18 ft


LIPC - Cervia AFB Ravenna

ULTIMO METAR :
  • 240055Z 31003KT 4000 BR BKN008 02/01 Q1029 RMK BKN VIS MIN 4000 WIND THR11 31002KT WIND THR29 /////KT GRN

METARs OBSOLETI :
  • 232355Z 26004KT 5000 BR NSC 02/01 Q1029 RMK SKC VIS MIN 5000 WIND THR11 26004KT WIND THR29 /////KT WHT
  • 232255Z 21002KT 3000 BR NSC 02/00 Q1029 RMK SKC VIS MIN 3000 WIND THR11 23004KT WIND THR29 /////KT YLO

TAF TAF LIPC
Valido dal 24 a 00 ore il 24 a 09 ore UTC


232300Z 2400/2409 20003KT 1500 BR SCT020
TEMPO 2321/2406 0300 FG BKN004
Nessun NOTAM noto per questo aeroporto.



MetMap, La meteo Aeronautica in un colpo d'occhio ! - Copyright ORBIFLY Dicembre 2007 - Disclaimer

ORBIFLY MET'MAP TEAM :

Programmazione e sviluppo : Alexandra Zaïnal
Concezione e sviluppo : Baudouin d'Aumeries
Co-Programmazione e sviluppo : Marc-Olivier Méhu
Supporto tecnico e logistico : Manuel Goepfert
Aiuto per la traduzione : Arnaldo La Scala

Contatto : metmap@orbifly.com




FONTI E CREDITI :

   NOAA